Etusivu
METAR-TAF:

METAR-TAF

Lentoasemat :

Ouarzazate, Marokko

Leveyspiiri: 30-56N, Pituuspiiri: 006-54W, korkeus merenpinnasta: 1139 m

Tämänhetkinen sää

Tämä raportti tehtiin 1 tunti ja 0 minuuttia sitten, kello 10.00 UTC
Tuuli 2 kn eri suunnista
Lämpötila 18°C
Kosteus 28%
Ilmanpaine 1015 hPa
Näkyvyys 10 km tai enemmän
ei pilviä alle 1500 m:ssä eikä cumulonimbus-pilviä

METAR: GMMZ 011000Z VRB02KT CAVOK 18/M01 Q1015 NOSIG

Aika: 12:00 (11:00 UTC)

Sääennuste

Tämä raportti tehtiin 6 tuntia ja 0 minuuttia sitten, kello 05.00 UTC
Ennuste voimassa 01. päivästä klo 06 UTC - 02. päivään klo 12 UTC
Tuuli 6 kn luoteesta
Näkyvyys 10 km tai enemmän
ei pilviä alle 1500 m:ssä eikä cumulonimbus-pilviä
Ajoittain
01. päivästä klo 16 UTC - 01. päivään klo 20 UTC
Tuuli 16 kn lännestä/luoteesta

TAF: GMMZ 010500Z 0106/0212 31006KT CAVOK TEMPO 0116/0120 30016KT

Säähavainnot ja -ennusteet yli 4000 lentoasemalta (METAR- ja TAF-raportit).

Käytössä olevat sääasemat on merkitty karttaan keltaisilla ja punaisilla pisteillä.

Aseta hiiri pisteen päälle nähdäksesi sääaseman nimen.

Klikkaa sitten nähdäksesi säähavainnot ja -ennusteet.

Kartan vaihtaminen: klikkaa mustalla rastilla varustettuja vihreitä pisteitä, niin voit zoomata sisään; viivalla varustettua vihreää pistettä, niin voit zoomata ulos tai vihreitä nuolia, niin pääset viereisille kartoille.


METAR-TAF: